sensor_id;sensor_type;location;lat;lon;timestamp;pressure;altitude;pressure_sealevel;temperature;humidity
71573;BME280;59408;51.032;9.410;2023-04-05T00:01:34;99808.69;;;-1.53;87.15
71573;BME280;59408;51.032;9.410;2023-04-05T00:04:01;99805.28;;;-1.65;88.69
71573;BME280;59408;51.032;9.410;2023-04-05T00:06:28;99803.06;;;-1.68;88.84
71573;BME280;59408;51.032;9.410;2023-04-05T00:08:56;99803.00;;;-1.73;89.88
71573;BME280;59408;51.032;9.410;2023-04-05T00:11:26;99798.59;;;-1.79;89.52
71573;BME280;59408;51.032;9.410;2023-04-05T00:13:53;99800.03;;;-1.88;90.11
71573;BME280;59408;51.032;9.410;2023-04-05T00:16:20;99796.22;;;-1.92;89.98
71573;BME280;59408;51.032;9.410;2023-04-05T00:18:47;99796.69;;;-1.95;90.60
71573;BME280;59408;51.032;9.410;2023-04-05T00:21:13;99793.66;;;-1.99;90.77
71573;BME280;59408;51.032;9.410;2023-04-05T00:23:40;99789.63;;;-2.01;90.67
71573;BME280;59408;51.032;9.410;2023-04-05T00:26:07;99793.22;;;-2.07;90.77
71573;BME280;59408;51.032;9.410;2023-04-05T00:28:35;99792.69;;;-2.09;90.88
71573;BME280;59408;51.032;9.410;2023-04-05T00:31:02;99793.16;;;-2.13;90.22
71573;BME280;59408;51.032;9.410;2023-04-05T00:33:29;99789.06;;;-2.15;90.51
71573;BME280;59408;51.032;9.410;2023-04-05T00:35:56;99791.16;;;-2.17;90.14
71573;BME280;59408;51.032;9.410;2023-04-05T00:38:23;99794.34;;;-2.20;90.20
71573;BME280;59408;51.032;9.410;2023-04-05T00:40:49;99792.13;;;-2.23;90.81
71573;BME280;59408;51.032;9.410;2023-04-05T00:43:16;99789.00;;;-2.32;90.48
71573;BME280;59408;51.032;9.410;2023-04-05T00:45:44;99792.16;;;-2.35;90.96
71573;BME280;59408;51.032;9.410;2023-04-05T00:48:12;99791.25;;;-2.40;91.31
71573;BME280;59408;51.032;9.410;2023-04-05T00:50:39;99782.06;;;-2.44;92.15
71573;BME280;59408;51.032;9.410;2023-04-05T00:53:06;99785.22;;;-2.47;92.56
71573;BME280;59408;51.032;9.410;2023-04-05T00:55:33;99778.25;;;-2.48;92.56
71573;BME280;59408;51.032;9.410;2023-04-05T00:57:59;99784.88;;;-2.51;92.90
71573;BME280;59408;51.032;9.410;2023-04-05T01:00:27;99774.91;;;-2.56;92.40
71573;BME280;59408;51.032;9.410;2023-04-05T01:02:57;99772.56;;;-2.64;93.57
71573;BME280;59408;51.032;9.410;2023-04-05T01:05:34;99773.50;;;-2.70;93.72
71573;BME280;59408;51.032;9.410;2023-04-05T01:08:10;99770.25;;;-2.72;93.20
71573;BME280;59408;51.032;9.410;2023-04-05T01:10:39;99774.47;;;-2.76;93.60
71573;BME280;59408;51.032;9.410;2023-04-05T01:13:08;99775.50;;;-2.77;93.51
71573;BME280;59408;51.032;9.410;2023-04-05T01:15:35;99774.09;;;-2.79;93.57
71573;BME280;59408;51.032;9.410;2023-04-05T01:18:03;99773.78;;;-2.83;93.63
71573;BME280;59408;51.032;9.410;2023-04-05T01:20:33;99765.41;;;-2.86;92.89
71573;BME280;59408;51.032;9.410;2023-04-05T01:23:20;99773.06;;;-2.90;93.00
71573;BME280;59408;51.032;9.410;2023-04-05T01:26:03;99768.66;;;-2.96;93.39
71573;BME280;59408;51.032;9.410;2023-04-05T01:28:59;99763.78;;;-2.99;92.84
71573;BME280;59408;51.032;9.410;2023-04-05T01:31:40;99763.44;;;-3.03;93.19
71573;BME280;59408;51.032;9.410;2023-04-05T01:34:13;99762.88;;;-3.05;93.00
71573;BME280;59408;51.032;9.410;2023-04-05T01:36:44;99766.00;;;-3.08;94.06
71573;BME280;59408;51.032;9.410;2023-04-05T01:39:16;99764.03;;;-3.12;94.38
71573;BME280;59408;51.032;9.410;2023-04-05T01:41:44;99766.09;;;-3.14;94.01
71573;BME280;59408;51.032;9.410;2023-04-05T01:44:11;99759.25;;;-3.22;94.87
71573;BME280;59408;51.032;9.410;2023-04-05T01:46:39;99761.56;;;-3.26;94.64
71573;BME280;59408;51.032;9.410;2023-04-05T01:49:06;99759.38;;;-3.29;95.16
71573;BME280;59408;51.032;9.410;2023-04-05T01:51:33;99756.13;;;-3.31;94.91
71573;BME280;59408;51.032;9.410;2023-04-05T01:53:59;99752.06;;;-3.33;95.02
71573;BME280;59408;51.032;9.410;2023-04-05T01:56:26;99749.03;;;-3.37;94.88
71573;BME280;59408;51.032;9.410;2023-04-05T01:58:52;99753.59;;;-3.37;95.16
71573;BME280;59408;51.032;9.410;2023-04-05T02:01:19;99745.00;;;-3.39;95.11
71573;BME280;59408;51.032;9.410;2023-04-05T02:03:47;99753.22;;;-3.41;95.05
71573;BME280;59408;51.032;9.410;2023-04-05T02:06:14;99739.28;;;-3.43;94.53
71573;BME280;59408;51.032;9.410;2023-04-05T02:08:40;99752.03;;;-3.45;95.33
71573;BME280;59408;51.032;9.410;2023-04-05T02:11:07;99749.03;;;-3.48;95.07
71573;BME280;59408;51.032;9.410;2023-04-05T02:13:33;99753.78;;;-3.50;95.05
71573;BME280;59408;51.032;9.410;2023-04-05T02:16:00;99746.00;;;-3.52;95.09
71573;BME280;59408;51.032;9.410;2023-04-05T02:18:27;99738.72;;;-3.56;94.88
71573;BME280;59408;51.032;9.410;2023-04-05T02:21:00;99737.69;;;-3.55;94.83
71573;BME280;59408;51.032;9.410;2023-04-05T02:23:26;99739.97;;;-3.59;95.24
71573;BME280;59408;51.032;9.410;2023-04-05T02:25:53;99747.59;;;-3.63;95.39
71573;BME280;59408;51.032;9.410;2023-04-05T02:28:20;99742.16;;;-3.68;95.83
71573;BME280;59408;51.032;9.410;2023-04-05T02:30:46;99740.53;;;-3.69;96.26
71573;BME280;59408;51.032;9.410;2023-04-05T02:33:13;99736.69;;;-3.73;95.95
71573;BME280;59408;51.032;9.410;2023-04-05T02:35:39;99748.63;;;-3.75;96.55
71573;BME280;59408;51.032;9.410;2023-04-05T02:38:07;99740.63;;;-3.75;96.45
71573;BME280;59408;51.032;9.410;2023-04-05T02:40:34;99742.34;;;-3.81;96.18
71573;BME280;59408;51.032;9.410;2023-04-05T02:43:01;99732.16;;;-3.84;96.56
71573;BME280;59408;51.032;9.410;2023-04-05T02:45:27;99736.69;;;-3.84;97.02
71573;BME280;59408;51.032;9.410;2023-04-05T02:47:54;99735.50;;;-3.88;96.81
71573;BME280;59408;51.032;9.410;2023-04-05T02:50:20;99733.31;;;-3.91;96.44
71573;BME280;59408;51.032;9.410;2023-04-05T02:52:47;99740.22;;;-3.90;96.62
71573;BME280;59408;51.032;9.410;2023-04-05T02:55:16;99736.19;;;-3.93;96.92
71573;BME280;59408;51.032;9.410;2023-04-05T02:57:43;99735.97;;;-3.91;97.00
71573;BME280;59408;51.032;9.410;2023-04-05T03:00:13;99740.94;;;-3.95;97.11
71573;BME280;59408;51.032;9.410;2023-04-05T03:02:40;99735.00;;;-3.97;96.91
71573;BME280;59408;51.032;9.410;2023-04-05T03:05:07;99730.72;;;-3.98;96.50
71573;BME280;59408;51.032;9.410;2023-04-05T03:07:34;99732.78;;;-4.00;95.95
71573;BME280;59408;51.032;9.410;2023-04-05T03:10:00;99726.69;;;-4.00;96.38
71573;BME280;59408;51.032;9.410;2023-04-05T03:12:28;99724.22;;;-4.02;96.02
71573;BME280;59408;51.032;9.410;2023-04-05T03:14:55;99720.16;;;-4.05;96.62
71573;BME280;59408;51.032;9.410;2023-04-05T03:17:22;99720.59;;;-4.08;96.62
71573;BME280;59408;51.032;9.410;2023-04-05T03:19:48;99719.22;;;-4.10;97.01
71573;BME280;59408;51.032;9.410;2023-04-05T03:22:15;99712.50;;;-4.13;96.79
71573;BME280;59408;51.032;9.410;2023-04-05T03:24:41;99714.78;;;-4.16;97.02
71573;BME280;59408;51.032;9.410;2023-04-05T03:27:08;99701.13;;;-4.20;97.37
71573;BME280;59408;51.032;9.410;2023-04-05T03:29:36;99705.84;;;-4.22;97.61
71573;BME280;59408;51.032;9.410;2023-04-05T03:32:03;99709.56;;;-4.23;97.53
71573;BME280;59408;51.032;9.410;2023-04-05T03:34:29;99703.03;;;-4.27;97.54
71573;BME280;59408;51.032;9.410;2023-04-05T03:36:56;99715.31;;;-4.26;97.75
71573;BME280;59408;51.032;9.410;2023-04-05T03:39:23;99714.38;;;-4.31;97.79
71573;BME280;59408;51.032;9.410;2023-04-05T03:41:49;99714.00;;;-4.35;97.59
71573;BME280;59408;51.032;9.410;2023-04-05T03:44:16;99715.06;;;-4.36;97.92
71573;BME280;59408;51.032;9.410;2023-04-05T03:46:44;99709.16;;;-4.38;98.13
71573;BME280;59408;51.032;9.410;2023-04-05T03:49:10;99721.66;;;-4.38;98.18
71573;BME280;59408;51.032;9.410;2023-04-05T03:51:37;99719.81;;;-4.38;98.85
71573;BME280;59408;51.032;9.410;2023-04-05T03:54:04;99723.03;;;-4.36;99.10
71573;BME280;59408;51.032;9.410;2023-04-05T03:56:31;99726.06;;;-4.32;98.94
71573;BME280;59408;51.032;9.410;2023-04-05T03:58:58;99720.31;;;-4.29;98.27
71573;BME280;59408;51.032;9.410;2023-04-05T04:01:24;99718.00;;;-4.26;98.37
71573;BME280;59408;51.032;9.410;2023-04-05T04:03:52;99717.78;;;-4.24;98.62
71573;BME280;59408;51.032;9.410;2023-04-05T04:06:19;99711.78;;;-4.20;98.79
71573;BME280;59408;51.032;9.410;2023-04-05T04:08:46;99708.09;;;-4.19;98.74
71573;BME280;59408;51.032;9.410;2023-04-05T04:11:12;99712.34;;;-4.18;98.53
71573;BME280;59408;51.032;9.410;2023-04-05T04:13:39;99714.19;;;-4.18;98.36
71573;BME280;59408;51.032;9.410;2023-04-05T04:16:06;99720.00;;;-4.21;98.35
71573;BME280;59408;51.032;9.410;2023-04-05T04:18:32;99711.19;;;-4.22;98.99
71573;BME280;59408;51.032;9.410;2023-04-05T04:21:02;99710.38;;;-4.22;99.08
71573;BME280;59408;51.032;9.410;2023-04-05T04:23:28;99709.34;;;-4.21;99.39
71573;BME280;59408;51.032;9.410;2023-04-05T04:25:55;99709.34;;;-4.21;99.44
71573;BME280;59408;51.032;9.410;2023-04-05T04:28:22;99711.78;;;-4.20;99.17
71573;BME280;59408;51.032;9.410;2023-04-05T04:30:48;99720.59;;;-4.19;98.79
71573;BME280;59408;51.032;9.410;2023-04-05T04:33:15;99717.91;;;-4.19;98.67
71573;BME280;59408;51.032;9.410;2023-04-05T04:35:42;99718.75;;;-4.19;98.75
71573;BME280;59408;51.032;9.410;2023-04-05T04:38:10;99716.41;;;-4.15;98.85
71573;BME280;59408;51.032;9.410;2023-04-05T04:40:37;99709.03;;;-4.13;99.14
71573;BME280;59408;51.032;9.410;2023-04-05T04:43:04;99703.91;;;-4.15;99.58
71573;BME280;59408;51.032;9.410;2023-04-05T04:45:31;99706.56;;;-4.15;99.31
71573;BME280;59408;51.032;9.410;2023-04-05T04:47:58;99708.44;;;-4.15;99.22
71573;BME280;59408;51.032;9.410;2023-04-05T04:50:24;99707.84;;;-4.17;98.98
71573;BME280;59408;51.032;9.410;2023-04-05T04:52:51;99703.78;;;-4.20;99.31
71573;BME280;59408;51.032;9.410;2023-04-05T04:55:20;99704.81;;;-4.21;99.37
71573;BME280;59408;51.032;9.410;2023-04-05T04:57:46;99711.19;;;-4.22;99.10
71573;BME280;59408;51.032;9.410;2023-04-05T05:00:14;99700.75;;;-4.23;99.12
71573;BME280;59408;51.032;9.410;2023-04-05T05:02:40;99701.19;;;-4.26;99.37
71573;BME280;59408;51.032;9.410;2023-04-05T05:05:08;99702.81;;;-4.25;99.09
71573;BME280;59408;51.032;9.410;2023-04-05T05:07:37;99711.84;;;-4.26;99.22
71573;BME280;59408;51.032;9.410;2023-04-05T05:10:04;99707.34;;;-4.26;99.14
71573;BME280;59408;51.032;9.410;2023-04-05T05:12:33;99707.34;;;-4.26;99.35
71573;BME280;59408;51.032;9.410;2023-04-05T05:15:00;99707.34;;;-4.26;99.16
71573;BME280;59408;51.032;9.410;2023-04-05T05:17:26;99718.38;;;-4.22;99.03
71573;BME280;59408;51.032;9.410;2023-04-05T05:19:53;99724.63;;;-4.17;99.11
71573;BME280;59408;51.032;9.410;2023-04-05T05:22:21;99716.19;;;-4.14;98.67
71573;BME280;59408;51.032;9.410;2023-04-05T05:24:48;99721.88;;;-4.10;98.07
71573;BME280;59408;51.032;9.410;2023-04-05T05:27:14;99721.78;;;-4.04;98.28
71573;BME280;59408;51.032;9.410;2023-04-05T05:29:42;99724.94;;;-3.95;97.30
71573;BME280;59408;51.032;9.410;2023-04-05T05:32:09;99725.06;;;-3.90;97.03
71573;BME280;59408;51.032;9.410;2023-04-05T05:34:36;99725.44;;;-3.86;96.89
71573;BME280;59408;51.032;9.410;2023-04-05T05:37:02;99724.50;;;-3.80;96.20
71573;BME280;59408;51.032;9.410;2023-04-05T05:39:29;99728.13;;;-3.75;95.95
71573;BME280;59408;51.032;9.410;2023-04-05T05:41:55;99725.94;;;-3.66;95.88
71573;BME280;59408;51.032;9.410;2023-04-05T05:44:22;99727.91;;;-3.61;95.35
71573;BME280;59408;51.032;9.410;2023-04-05T05:46:50;99729.09;;;-3.57;95.14
71573;BME280;59408;51.032;9.410;2023-04-05T05:49:17;99723.63;;;-3.51;94.94
71573;BME280;59408;51.032;9.410;2023-04-05T05:51:43;99725.63;;;-3.46;94.35
71573;BME280;59408;51.032;9.410;2023-04-05T05:54:10;99721.56;;;-3.37;94.02
71573;BME280;59408;51.032;9.410;2023-04-05T05:56:36;99716.72;;;-3.29;93.83
71573;BME280;59408;51.032;9.410;2023-04-05T05:59:03;99718.44;;;-3.22;94.43
71573;BME280;59408;51.032;9.410;2023-04-05T06:01:30;99712.16;;;-3.16;93.93
71573;BME280;59408;51.032;9.410;2023-04-05T06:03:58;99714.16;;;-3.12;92.89
71573;BME280;59408;51.032;9.410;2023-04-05T06:06:25;99718.09;;;-3.03;93.46
71573;BME280;59408;51.032;9.410;2023-04-05T06:08:51;99717.72;;;-2.95;93.13
71573;BME280;59408;51.032;9.410;2023-04-05T06:11:18;99723.28;;;-2.84;92.79
71573;BME280;59408;51.032;9.410;2023-04-05T06:13:45;99717.59;;;-2.76;92.19
71573;BME280;59408;51.032;9.410;2023-04-05T06:16:12;99719.31;;;-2.70;92.13
71573;BME280;59408;51.032;9.410;2023-04-05T06:18:38;99720.78;;;-2.63;91.73
71573;BME280;59408;51.032;9.410;2023-04-05T06:21:06;99722.03;;;-2.54;91.66
71573;BME280;59408;51.032;9.410;2023-04-05T06:23:33;99712.88;;;-2.46;91.50
71573;BME280;59408;51.032;9.410;2023-04-05T06:26:00;99715.72;;;-2.36;90.65
71573;BME280;59408;51.032;9.410;2023-04-05T06:28:27;99718.59;;;-2.26;89.57
71573;BME280;59408;51.032;9.410;2023-04-05T06:30:54;99714.97;;;-2.20;87.53
71573;BME280;59408;51.032;9.410;2023-04-05T06:33:21;99706.34;;;-2.10;88.50
71573;BME280;59408;51.032;9.410;2023-04-05T06:35:50;99710.56;;;-1.97;87.90
71573;BME280;59408;51.032;9.410;2023-04-05T06:38:18;99709.47;;;-1.85;87.70
71573;BME280;59408;51.032;9.410;2023-04-05T06:40:44;99707.50;;;-1.72;87.79
71573;BME280;59408;51.032;9.410;2023-04-05T06:43:11;99704.19;;;-1.63;86.66
71573;BME280;59408;51.032;9.410;2023-04-05T06:45:38;99711.91;;;-1.50;86.44
71573;BME280;59408;51.032;9.410;2023-04-05T06:48:05;99707.31;;;-1.38;86.48
71573;BME280;59408;51.032;9.410;2023-04-05T06:50:31;99708.09;;;-1.20;85.68
71573;BME280;59408;51.032;9.410;2023-04-05T06:52:58;99709.13;;;-1.05;83.96
71573;BME280;59408;51.032;9.410;2023-04-05T06:55:26;99702.66;;;-0.87;84.00
71573;BME280;59408;51.032;9.410;2023-04-05T06:57:53;99708.53;;;-0.68;82.21
71573;BME280;59408;51.032;9.410;2023-04-05T07:00:20;99704.41;;;-0.54;81.74
71573;BME280;59408;51.032;9.410;2023-04-05T07:02:46;99710.59;;;-0.32;81.06
71573;BME280;59408;51.032;9.410;2023-04-05T07:05:13;99701.63;;;-0.15;79.08
71573;BME280;59408;51.032;9.410;2023-04-05T07:07:40;99699.91;;;0.00;75.85
71573;BME280;59408;51.032;9.410;2023-04-05T07:10:08;99699.50;;;0.13;75.83
71573;BME280;59408;51.032;9.410;2023-04-05T07:12:36;99696.47;;;0.32;74.87
71573;BME280;59408;51.032;9.410;2023-04-05T07:15:03;99694.44;;;0.49;74.17
71573;BME280;59408;51.032;9.410;2023-04-05T07:17:30;99690.63;;;0.72;73.22
71573;BME280;59408;51.032;9.410;2023-04-05T07:19:56;99697.75;;;0.98;73.19
71573;BME280;59408;51.032;9.410;2023-04-05T07:22:23;99695.66;;;1.05;75.17
71573;BME280;59408;51.032;9.410;2023-04-05T07:24:52;99694.28;;;1.03;74.88
71573;BME280;59408;51.032;9.410;2023-04-05T07:27:19;99696.25;;;1.17;75.03
71573;BME280;59408;51.032;9.410;2023-04-05T07:29:47;99694.44;;;1.33;77.67
71573;BME280;59408;51.032;9.410;2023-04-05T07:32:13;99684.00;;;1.42;77.20
71573;BME280;59408;51.032;9.410;2023-04-05T07:34:40;99690.22;;;1.52;76.01
71573;BME280;59408;51.032;9.410;2023-04-05T07:37:07;99688.13;;;1.70;74.34
71573;BME280;59408;51.032;9.410;2023-04-05T07:39:33;99686.03;;;1.82;73.75
71573;BME280;59408;51.032;9.410;2023-04-05T07:42:00;99684.16;;;1.97;74.49
71573;BME280;59408;51.032;9.410;2023-04-05T07:44:27;99690.91;;;2.00;73.20
71573;BME280;59408;51.032;9.410;2023-04-05T07:46:55;99693.38;;;2.27;72.95
71573;BME280;59408;51.032;9.410;2023-04-05T07:49:24;99689.84;;;2.47;71.47
71573;BME280;59408;51.032;9.410;2023-04-05T07:51:53;99692.28;;;2.63;70.27
71573;BME280;59408;51.032;9.410;2023-04-05T07:54:20;99688.22;;;2.76;66.37
71573;BME280;59408;51.032;9.410;2023-04-05T07:56:47;99696.78;;;3.13;68.52
71573;BME280;59408;51.032;9.410;2023-04-05T07:59:13;99696.53;;;3.05;67.63
71573;BME280;59408;51.032;9.410;2023-04-05T08:01:40;99690.81;;;3.27;69.13
71573;BME280;59408;51.032;9.410;2023-04-05T08:04:08;99698.31;;;3.40;69.25
71573;BME280;59408;51.032;9.410;2023-04-05T08:06:35;99692.09;;;3.39;65.60
71573;BME280;59408;51.032;9.410;2023-04-05T08:09:02;99688.31;;;3.45;67.63
71573;BME280;59408;51.032;9.410;2023-04-05T08:11:28;99684.66;;;3.75;64.76
71573;BME280;59408;51.032;9.410;2023-04-05T08:13:55;99673.28;;;3.83;64.68
71573;BME280;59408;51.032;9.410;2023-04-05T08:16:22;99684.06;;;3.88;61.99
71573;BME280;59408;51.032;9.410;2023-04-05T08:18:48;99673.97;;;4.09;63.92
71573;BME280;59408;51.032;9.410;2023-04-05T08:21:16;99678.97;;;4.26;64.75
71573;BME280;59408;51.032;9.410;2023-04-05T08:23:43;99676.13;;;4.41;63.47
71573;BME280;59408;51.032;9.410;2023-04-05T08:26:10;99673.53;;;4.94;57.91
71573;BME280;59408;51.032;9.410;2023-04-05T08:28:36;99673.47;;;5.47;55.88
71573;BME280;59408;51.032;9.410;2023-04-05T08:31:03;99665.19;;;5.62;52.14
71573;BME280;59408;51.032;9.410;2023-04-05T08:33:29;99668.69;;;5.62;52.35
71573;BME280;59408;51.032;9.410;2023-04-05T08:35:56;99676.59;;;5.96;50.88
71573;BME280;59408;51.032;9.410;2023-04-05T08:38:24;99669.81;;;6.18;51.37
71573;BME280;59408;51.032;9.410;2023-04-05T08:40:51;99672.66;;;6.59;53.77
71573;BME280;59408;51.032;9.410;2023-04-05T08:43:24;99673.06;;;6.98;50.14
71573;BME280;59408;51.032;9.410;2023-04-05T08:45:58;99666.44;;;7.18;50.55
71573;BME280;59408;51.032;9.410;2023-04-05T08:48:26;99669.91;;;7.37;47.73
71573;BME280;59408;51.032;9.410;2023-04-05T08:50:57;99666.47;;;7.45;49.90
71573;BME280;59408;51.032;9.410;2023-04-05T08:53:25;99673.50;;;7.60;46.89
71573;BME280;59408;51.032;9.410;2023-04-05T08:55:54;99669.06;;;7.50;47.46
71573;BME280;59408;51.032;9.410;2023-04-05T08:58:22;99669.66;;;7.20;48.58
71573;BME280;59408;51.032;9.410;2023-04-05T09:00:49;99665.84;;;6.61;49.68
71573;BME280;59408;51.032;9.410;2023-04-05T09:03:19;99664.53;;;6.26;46.88
71573;BME280;59408;51.032;9.410;2023-04-05T09:05:49;99662.63;;;6.27;48.35
71573;BME280;59408;51.032;9.410;2023-04-05T09:08:16;99660.13;;;6.63;48.16
71573;BME280;59408;51.032;9.410;2023-04-05T09:10:44;99658.50;;;7.21;45.95
71573;BME280;59408;51.032;9.410;2023-04-05T09:13:11;99660.59;;;7.79;47.51
71573;BME280;59408;51.032;9.410;2023-04-05T09:15:38;99658.94;;;8.50;44.94
71573;BME280;59408;51.032;9.410;2023-04-05T09:18:04;99660.91;;;8.58;44.12
71573;BME280;59408;51.032;9.410;2023-04-05T09:20:49;99659.34;;;8.21;44.29
71573;BME280;59408;51.032;9.410;2023-04-05T09:23:15;99663.13;;;8.12;47.10
71573;BME280;59408;51.032;9.410;2023-04-05T09:25:42;99668.25;;;7.09;43.32
71573;BME280;59408;51.032;9.410;2023-04-05T09:28:10;99663.91;;;6.94;47.19
71573;BME280;59408;51.032;9.410;2023-04-05T09:30:37;99661.19;;;8.12;48.10
71573;BME280;59408;51.032;9.410;2023-04-05T09:33:06;99665.03;;;9.09;45.53
71573;BME280;59408;51.032;9.410;2023-04-05T09:35:35;99660.81;;;9.25;44.25
71573;BME280;59408;51.032;9.410;2023-04-05T09:38:03;99653.03;;;8.79;40.49
71573;BME280;59408;51.032;9.410;2023-04-05T09:40:40;99661.41;;;9.62;44.78
71573;BME280;59408;51.032;9.410;2023-04-05T09:43:07;99648.50;;;10.19;45.25
71573;BME280;59408;51.032;9.410;2023-04-05T09:45:39;99652.13;;;10.75;42.63
71573;BME280;59408;51.032;9.410;2023-04-05T09:48:06;99653.41;;;10.60;41.34
71573;BME280;59408;51.032;9.410;2023-04-05T09:50:33;99657.25;;;9.64;40.84
71573;BME280;59408;51.032;9.410;2023-04-05T09:53:07;99649.16;;;9.02;39.32
71573;BME280;59408;51.032;9.410;2023-04-05T09:55:35;99645.34;;;8.72;41.83
71573;BME280;59408;51.032;9.410;2023-04-05T09:58:01;99641.25;;;9.23;43.56
71573;BME280;59408;51.032;9.410;2023-04-05T10:00:29;99639.81;;;9.91;41.86
71573;BME280;59408;51.032;9.410;2023-04-05T10:02:57;99639.66;;;10.22;40.33
71573;BME280;59408;51.032;9.410;2023-04-05T10:05:25;99641.09;;;10.37;38.54
71573;BME280;59408;51.032;9.410;2023-04-05T10:07:54;99647.91;;;11.32;39.61
71573;BME280;59408;51.032;9.410;2023-04-05T10:10:21;99638.47;;;10.92;38.80
71573;BME280;59408;51.032;9.410;2023-04-05T10:12:49;99640.91;;;10.50;38.26
71573;BME280;59408;51.032;9.410;2023-04-05T10:15:15;99630.31;;;10.49;39.00
71573;BME280;59408;51.032;9.410;2023-04-05T10:17:46;99635.97;;;9.92;38.22
71573;BME280;59408;51.032;9.410;2023-04-05T10:20:16;99625.25;;;10.94;40.08
71573;BME280;59408;51.032;9.410;2023-04-05T10:22:55;99634.91;;;11.29;40.56
71573;BME280;59408;51.032;9.410;2023-04-05T10:25:26;99637.25;;;10.29;40.63
71573;BME280;59408;51.032;9.410;2023-04-05T10:28:03;99628.25;;;9.85;38.28
71573;BME280;59408;51.032;9.410;2023-04-05T10:30:33;99631.16;;;9.80;38.83
71573;BME280;59408;51.032;9.410;2023-04-05T10:33:09;99621.56;;;10.00;41.97
71573;BME280;59408;51.032;9.410;2023-04-05T10:35:45;99629.94;;;9.38;41.79
71573;BME280;59408;51.032;9.410;2023-04-05T10:38:20;99627.13;;;8.51;39.76
71573;BME280;59408;51.032;9.410;2023-04-05T10:40:53;99625.41;;;8.32;41.87
71573;BME280;59408;51.032;9.410;2023-04-05T10:43:22;99619.50;;;9.32;42.75
71573;BME280;59408;51.032;9.410;2023-04-05T10:45:52;99620.56;;;10.22;41.57
71573;BME280;59408;51.032;9.410;2023-04-05T10:48:27;99617.06;;;10.94;38.89
71573;BME280;59408;51.032;9.410;2023-04-05T10:51:01;99622.81;;;11.39;37.45
71573;BME280;59408;51.032;9.410;2023-04-05T10:53:29;99606.00;;;10.99;35.07
71573;BME280;59408;51.032;9.410;2023-04-05T10:55:56;99609.19;;;11.30;36.95
71573;BME280;59408;51.032;9.410;2023-04-05T10:58:24;99611.22;;;11.71;40.47
71573;BME280;59408;51.032;9.410;2023-04-05T11:00:53;99606.75;;;12.08;40.20
71573;BME280;59408;51.032;9.410;2023-04-05T11:03:45;99604.16;;;11.70;35.86
71573;BME280;59408;51.032;9.410;2023-04-05T11:06:30;99594.22;;;12.28;36.64
71573;BME280;59408;51.032;9.410;2023-04-05T11:08:59;99593.31;;;12.69;38.79
71573;BME280;59408;51.032;9.410;2023-04-05T11:11:26;99587.31;;;13.37;39.39
71573;BME280;59408;51.032;9.410;2023-04-05T11:13:54;99581.16;;;13.64;36.05
71573;BME280;59408;51.032;9.410;2023-04-05T11:16:21;99585.28;;;13.46;36.09
71573;BME280;59408;51.032;9.410;2023-04-05T11:18:50;99579.94;;;13.89;37.37
71573;BME280;59408;51.032;9.410;2023-04-05T11:21:23;99579.91;;;12.43;37.96
71573;BME280;59408;51.032;9.410;2023-04-05T11:24:01;99572.13;;;13.03;35.90
71573;BME280;59408;51.032;9.410;2023-04-05T11:29:14;99573.00;;;13.68;37.92
71573;BME280;59408;51.032;9.410;2023-04-05T11:31:56;99558.66;;;13.98;38.07
71573;BME280;59408;51.032;9.410;2023-04-05T11:34:23;99560.78;;;14.05;32.78
71573;BME280;59408;51.032;9.410;2023-04-05T11:36:52;99568.03;;;13.45;32.82
71573;BME280;59408;51.032;9.410;2023-04-05T11:39:25;99566.53;;;13.48;35.02
71573;BME280;59408;51.032;9.410;2023-04-05T11:41:54;99569.28;;;12.42;32.49
71573;BME280;59408;51.032;9.410;2023-04-05T11:44:22;99561.00;;;11.97;32.90
71573;BME280;59408;51.032;9.410;2023-04-05T11:46:49;99554.72;;;12.38;33.16
71573;BME280;59408;51.032;9.410;2023-04-05T11:49:20;99553.22;;;12.40;32.44
71573;BME280;59408;51.032;9.410;2023-04-05T11:51:47;99549.81;;;12.43;33.34
71573;BME280;59408;51.032;9.410;2023-04-05T11:54:28;99538.28;;;12.50;34.77
71573;BME280;59408;51.032;9.410;2023-04-05T11:56:55;99542.06;;;12.58;35.03
71573;BME280;59408;51.032;9.410;2023-04-05T11:59:27;99547.69;;;12.73;37.98
71573;BME280;59408;51.032;9.410;2023-04-05T12:01:57;99541.50;;;13.62;35.32
71573;BME280;59408;51.032;9.410;2023-04-05T12:04:24;99539.69;;;13.93;32.54
71573;BME280;59408;51.032;9.410;2023-04-05T12:07:09;99543.16;;;13.02;34.13
71573;BME280;59408;51.032;9.410;2023-04-05T12:10:00;99535.03;;;13.05;31.67
71573;BME280;59408;51.032;9.410;2023-04-05T12:12:32;99541.47;;;14.73;37.73
71573;BME280;59408;51.032;9.410;2023-04-05T12:14:59;99528.97;;;15.07;33.63
71573;BME280;59408;51.032;9.410;2023-04-05T12:17:43;99525.88;;;14.77;31.50
71573;BME280;59408;51.032;9.410;2023-04-05T12:20:11;99524.72;;;15.44;33.55
71573;BME280;59408;51.032;9.410;2023-04-05T12:22:41;99523.53;;;16.19;32.52
71573;BME280;59408;51.032;9.410;2023-04-05T12:25:10;99522.91;;;15.52;30.66
71573;BME280;59408;51.032;9.410;2023-04-05T12:27:37;99520.44;;;15.12;33.82
71573;BME280;59408;51.032;9.410;2023-04-05T12:30:05;99512.31;;;15.70;32.60
71573;BME280;59408;51.032;9.410;2023-04-05T12:32:35;99515.03;;;15.51;30.46
71573;BME280;59408;51.032;9.410;2023-04-05T12:35:05;99517.56;;;15.24;31.03
71573;BME280;59408;51.032;9.410;2023-04-05T12:37:33;99520.38;;;15.43;32.04
71573;BME280;59408;51.032;9.410;2023-04-05T12:40:02;99509.75;;;14.16;34.04
71573;BME280;59408;51.032;9.410;2023-04-05T12:42:32;99514.50;;;14.94;30.07
71573;BME280;59408;51.032;9.410;2023-04-05T12:45:02;99511.50;;;14.52;30.33
71573;BME280;59408;51.032;9.410;2023-04-05T12:47:31;99505.06;;;14.92;33.21
71573;BME280;59408;51.032;9.410;2023-04-05T12:50:09;99502.22;;;15.58;32.03
71573;BME280;59408;51.032;9.410;2023-04-05T12:52:35;99497.94;;;14.28;33.72
71573;BME280;59408;51.032;9.410;2023-04-05T12:55:02;99496.19;;;14.83;34.26
71573;BME280;59408;51.032;9.410;2023-04-05T12:57:31;99505.28;;;15.18;33.71
71573;BME280;59408;51.032;9.410;2023-04-05T12:59:57;99493.66;;;16.21;32.45
71573;BME280;59408;51.032;9.410;2023-04-05T13:02:24;99498.78;;;15.61;30.25
71573;BME280;59408;51.032;9.410;2023-04-05T13:04:51;99489.81;;;13.76;31.05
71573;BME280;59408;51.032;9.410;2023-04-05T13:07:17;99499.88;;;12.59;33.64
71573;BME280;59408;51.032;9.410;2023-04-05T13:09:44;99494.88;;;13.09;34.01
71573;BME280;59408;51.032;9.410;2023-04-05T13:12:10;99483.53;;;14.03;34.93